logo
Search for airport 
image banner adimage banner adimage banner ad
image banner ad

LGKO - Kos / Ippokratis

Located in Kos, Greece

ICAO - LGKO, IATA - KGS

Data provided by Airmate  

General information

Coordinates: N36°47'41" E27°5'28"
Elevation is 412 feet MSL.
 
View others Airports in Dodecanese

Operational data

Special qualification required
Current time UTC:
Current local time:
Weather
METAR: LGKO 200750Z 24013KT 9999 -RA BKN018 14/12 Q1004
TAF: TAF LGKO 200500Z 2006/2106 25022KT 9999 SCT018 BECMG 2014/2016 31020G30KT BECMG 2016/2018 31020KT BECMG 2019/2021 30012KT PROB40 TEMPO 2006/2015 5000 RA FEW010 FEW018TCU BKN020 PROB40 TEMPO 2006/2009 3000 TSRA SCT010 FEW016CB BKN020
View NOTAMs / SUP AIP / TFR affecting this airport [VIEW]
Communications frequencies: [VIEW]

Runways:

RWY identifierQFULength (ft)Width (ft)SurfaceLDA (ft)
14148°7841148ASP
32328°7841148ASP

Airport contact information

Address: Kos Greece

Handlers

Alpha Jet Services

Alpha Jet Services
[VIEW][VIEW]
+306946200300

Goldair Handling

Goldair Handling

Jetset Services

Jetset Services

Pandair

Pandair
[VIEW][VIEW]
+306944392311

Skyserv Handling Services

Skyserv Handling Services
[VIEW][VIEW]
+306936093709

Satellite view of LGKO